Strona główna
METAR-TAF:

METAR-TAF

Lotnisko :

Port lotniczy Bagdad

Bagdad, Irak

Szerokość geograficzna: 33-15-45N, Długość geograficzna: 44-14-04E, wysokość: 35 m

Aktualna obserwacja pogody

Raport powstał 16 minut temu, godzina 08:00 UTC
Wiatr 8 kt od północ
Temperatura 37°C
Wilgotność 14%
Ciśnienie 1011 hPa
Widzialność 10 km lub więcej
Brak chmur poniżej 1500 m i brak chmur cumulonimbus

METAR: ORBI 040800Z 35008KT CAVOK 37/05 Q1011 NOSIG

czas: 11:16 (08:16 UTC)

Prognoza

Raport powstał 4 godziny i 16 minut temu, godzina 04:00 UTC
Prognoza ważna od 04 godzina 06 UTC do 05 godzina 06 UTC
Wiatr 8 kt od północno-północny zachód
Widzialność 10 km lub więcej
Brak chmur poniżej 1500 m i brak chmur cumulonimbus

TAF: ORBI 040400Z 0406/0506 34008KT CAVOK

Obserwacja i prognoza pogody dla ponad 4000 lotnisk (raport METAR i TAF).

Dostępne stacje oznaczono żółtymi i czerwonymi punktami na mapie.

Najedź kursorem aby zobaczyć nazwę stacji.

Kliknij aby zobaczyć obserwacje i prognozy pogody.

Aby zmienić mapę: kliknij na zielony przycisk z czarnym krzyżykiem, aby powiększyć; na zielony przycisk z myślnikiem, aby pomniejszyć; na zielone strzałki, aby przejść do map sąsiednich.


METAR-TAF: